메인 페이지
METAR-TAF:

METAR-TAF

공항 :

볼고그라드, 러시아

위도: 48-47N, 경도: 044-22E, 고도: 145m

현재 날씨관측

예보는 28분 전, 05:30시(UTC)에 발표되었습니다.
서북서2kt
온도 -11°C
습도 85%
기압 1020 hPa
시정: 0150m
어는 안개

METAR: URWW 200530Z 29001MPS 0200 0150SW R06/0150N FZFG VV001 M11/M13 Q1020 R06/410145 NOSIG RMK QBB040 OBST OBSC

시각: 08:58 (05:58 UTC)

예보

예보는 1 시간 1분 전, 04:57시(UTC)에 발표되었습니다.
예보 대상 시간: 20일 06시부터 20일 15시까지 (UTC)
6kt, 순간 최대 풍속 16kt
시정: 0200m
고도 200ft 상공 흐림
어는 안개
일시적
20일 06시부터 20일 09시까지 (UTC)
시정: 3100m
고도 400ft 상공 흐림
박무
전환 중
20일 09시부터 20일 10시까지 (UTC)
시정: 3100m
고도 1100ft 상공 구름 많음
고도 2000ft 상공 구름 많음, 적란운.
약한소낙눈

TAF: URWW 200457Z 2006/2015 27003G08MPS 0200 FZFG OVC002 TEMPO 2006/2009 3100 BR OVC004 BECMG 2009/2010 3100 -SHSN BKN011 BKN020CB

4,000개 이상의 공항 관측 자료 및 예보 (METAR 및 TAF 보고).

지도상에서 검색 가능한 기상관측소가 노란 점과 빨간 점으로 표시되어 있습니다.

기상관측소 명을 보려면 표시 위로 마우스를 이동하세요.

날씨 관측과 예보를 보려면 클릭하세요.

지도 변경 : 확대하려면 엑스 표시가 있는 녹색 버튼, 축소하려면 빼기 표시가 있는 녹색 버튼, 다음 페이지의 지도를 보려면 녹색 화살표를 클릭하세요.


METAR-TAF: